• Join FlightAware (Why Join?)
  • Login
  • US Flag 
03:26PM EST


 

Airport Tracker/Info


-or-


 

Live Flight TrackerFlight Track Log ✈ ADB2894 ✈ 31-Aug-2007 ✈ KLCK - KBFI

Flight Track Log - Related Links

Times and Time Zones

All times are in EDT time to prevent confusion due to time zone crossing. See the ADB2894 flight status page for this flight to view local times or setup timezone preferences in your user account.

Time Position Orientation Groundspeed Altitude Reporting Facility
EDT Latitude Longitude Course Direction KTS MPH feet Rate Location/Type
03:19PM 39.9000 -82.9333 270° West 264 304 5,900  Level
03:20PM 39.9000 -83.0333 298° West 264 304 7,800 1,500 Climbing
03:21PM 39.9333 -83.1167 294° West 269 310 9,000 900 Climbing
03:22PM 39.9667 -83.2167 303° West 275 316 9,700 1,200 Climbing
03:23PM 40.0167 -83.3167 294° West 296 341 11,500 1,500 Climbing
03:24PM 40.0500 -83.4167 294° West 308 354 12,700 1,200 Climbing
03:25PM 40.0833 -83.5167 303° West 313 360 14,000 1,200 Climbing
03:26PM 40.1333 -83.6167 311° West 321 369 15,200 1,200 Climbing
03:27PM 40.2000 -83.7167 308° West 321 369 16,400 1,080 Climbing
03:28PM 40.2500 -83.8000 303° West 326 375 17,400 900 Climbing
03:29PM 40.3000 -83.9000 311° West 336 387 18,300 900 Climbing
03:30PM 40.3667 -84.0000 303° West 336 387 19,300 900 Climbing
03:31PM 40.4167 -84.1000 299° West 341 392 20,200 900 Climbing
03:32PM 40.4667 -84.2167 311° West 348 400 21,200 900 Climbing
03:33PM 40.5333 -84.3167 300° West 354 407 22,100 780 Climbing
03:34PM 40.6000 -84.4667 303° West 343 395 23,100 780 Climbing
03:35PM 40.6500 -84.5667 307° West 343 395 24,000 780 Climbing
03:36PM 40.7167 -84.6833 303° West 358 412 24,700 720 Climbing
03:37PM 40.7667 -84.7833 307° West 358 412 25,500 1,140 Climbing
03:38PM 40.8333 -84.9000 304° West 363 418 27,000 1,200 Climbing
03:39PM 40.8833 -85.0000 304° West 358 412 28,000 3,480 Climbing
03:40PM 40.9333 -85.1000 300° West 352 405 34,000 3,000 Climbing
03:41PM 40.9833 -85.2167 278° West 352 405 34,000  Level
03:42PM 41.0000 -85.3667 278° West 362 417 34,000  Level
03:43PM 41.0167 -85.5167 278° West 407 468 34,000  Level
03:44PM 41.0333 -85.6667 286° West 418 481 34,000  Level
03:45PM 41.0667 -85.8167 278° West 423 487 34,000 -2,400 Level
03:46PM 41.0833 -85.9667 278° West 429 494 29,300 -1,740 Descending
03:47PM 41.1000 -86.1167 278° West 424 488 30,600 1,260 Climbing
03:48PM 41.1167 -86.2667 279° West 419 482 31,900 1,140 Climbing
03:49PM 41.1333 -86.4000 279° West 396 456 32,900 780 Climbing
03:50PM 41.1500 -86.5333 279° West 378 435 33,500 540 Climbing
03:51PM 41.1667 -86.6667 288° West 372 428 34,000 240 Climbing
03:52PM 41.2000 -86.8000 288° West 377 434 34,000  Level
03:53PM 41.2333 -86.9333 288° West 377 434 34,000  Level
03:54PM 41.2667 -87.0667 287° West 383 441 34,000  Level
03:55PM 41.3000 -87.2167 287° West 395 455 34,000  Level
03:56PM 41.3333 -87.3667 289° West 402 463 34,000  Level
03:57PM 41.3667 -87.5000 285° West 407 468 34,000  Level
03:58PM 41.4000 -87.6667 288° West 413 475 34,000  Level
03:59PM 41.4333 -87.8000 287° West 413 475 34,000  Level
04:00PM 41.4667 -87.9500 287° West 413 475 34,000  Level
04:01PM 41.5000 -88.1000 285° West 418 481 34,000  Level
04:02PM 41.5333 -88.2667 307° West 431 496 34,000  Level
04:03PM 41.6000 -88.3833 314° West 397 457 34,000  Level
04:04PM 41.6833 -88.5000 318° Northwest 409 471 34,000  Level
04:05PM 41.7667 -88.6000 318° Northwest 409 471 34,000  Level
04:06PM 41.8500 -88.7000 314° West 409 471 34,000  Level
04:07PM 41.9333 -88.8167 318° Northwest 409 471 34,000  Level
04:08PM 42.0167 -88.9167 318° Northwest 409 471 34,000  Level
04:09PM 42.1000 -89.0167 314° West 398 458 34,000  Level
04:10PM 42.1833 -89.1333 318° Northwest 403 464 34,000  Level
04:11PM 42.2667 -89.2333 314° West 411 473 34,000  Level
04:12PM 42.3500 -89.3500 314° West 411 473 34,000  Level
04:13PM 42.4333 -89.4667 319° Northwest 411 473 34,000  Level
04:14PM 42.5167 -89.5667 314° West 411 473 34,000  Level
04:15PM 42.6000 -89.6833 314° West 411 473 34,000  Level
04:16PM 42.6833 -89.8000 319° Northwest 411 473 34,000  Level
04:17PM 42.7667 -89.9000 314° West 411 473 34,000  Level
04:18PM 42.8500 -90.0167 360° North 411 473 34,000  Level
04:18PM 42.8500 -90.0167 314° West 412 474 34,000  Level
04:19PM 42.9333 -90.1333 360° North 411 473 34,000  Level
04:19PM 42.9333 -90.1333 319° Northwest 417 480 34,000  Level
04:20PM 43.0167 -90.2333 314° West 411 473 34,000  Level
04:21PM 43.1000 -90.3500 360° North 417 480 34,000  Level
04:21PM 43.1000 -90.3500 314° West 419 482 34,000  Level
04:22PM 43.1833 -90.4667 360° North 417 480 34,000  Level
04:22PM 43.1833 -90.4667 315° West 419 482 34,000  Level
04:23PM 43.2667 -90.5833 360° North 417 480 34,000  Level
04:23PM 43.2667 -90.5833 314° West 419 482 34,000  Level
04:24PM 43.3500 -90.7000 319° Northwest 419 482 34,000  Level
04:25PM 43.4333 -90.8000 315° West 419 482 34,000  Level
04:26PM 43.5167 -90.9167 315° West 428 493 34,000  Level
04:27PM 43.6000 -91.0333 305° West 428 493 34,000  Level
04:28PM 43.6667 -91.1667 286° West 423 487 34,000  Level
04:29PM 43.7000 -91.3333 286° West 418 481 34,000  Level
04:30PM 43.7333 -91.5000 279° West 423 487 34,000  Level
04:31PM 43.7500 -91.6500 286° West 428 493 34,000  Level
04:32PM 43.7833 -91.8167 287° West 428 493 34,000  Level
04:33PM 43.8167 -91.9667 286° West 428 493 34,000  Level
04:34PM 43.8500 -92.1333 287° West 428 493 34,000  Level
04:35PM 43.8833 -92.2833 286° West 421 484 34,000  Level
04:36PM 43.9167 -92.4500 287° West 421 484 34,000  Level
04:37PM 43.9500 -92.6000 295° West 428 493 34,000  Level
04:38PM 44.0000 -92.7500 278° West 428 493 34,000  Level
04:39PM 44.0167 -92.9167 286° West 428 493 34,000  Level
04:40PM 44.0500 -93.0833 287° West 428 493 34,000  Level
04:41PM 44.0833 -93.2333 286° West 434 499 34,000  Level
04:42PM 44.1167 -93.4000 287° West 434 499 34,000  Level
04:43PM 44.1500 -93.5500 286° West 434 499 34,000  Level
04:44PM 44.1833 -93.7167 286° West 434 499 34,000  Level
04:45PM 44.2167 -93.8833 287° West 434 499 34,000  Level
04:46PM 44.2500 -94.0333 286° West 434 499 34,000  Level
04:47PM 44.2833 -94.2000 286° West 434 499 34,000  Level
04:48PM 44.3167 -94.3667 287° West 434 499 34,000  Level
04:49PM 44.3500 -94.5167 286° West 440 506 34,000  Level
04:50PM 44.3833 -94.6833 287° West 432 497 34,000  Level
04:51PM 44.4167 -94.8333 286° West 432 497 34,000  Level
04:52PM 44.4500 -95.0000 286° West 432 497 34,000  Level
04:53PM 44.4833 -95.1667 295° West 437 503 34,000  Level
04:54PM 44.5333 -95.3167 295° West 437 503 34,000  Level
04:55PM 44.5833 -95.4667 287° West 432 497 34,000  Level
04:56PM 44.6167 -95.6167 293° West 432 497 34,000  Level
04:57PM 44.6667 -95.7833 295° West 432 497 34,000  Level
04:58PM 44.7167 -95.9333 295° West 432 497 34,000  Level
04:59PM 44.7667 -96.0833 295° West 432 497 34,000  Level
05:00PM 44.8167 -96.2333 286° West 432 497 34,000  Level
05:01PM 44.8500 -96.4000 295° West 432 497 34,000  Level
05:02PM 44.9000 -96.5500 295° West 432 497 34,000  Level
05:03PM 44.9500 -96.7000 293° West 439 505 34,000  Level
05:04PM 45.0000 -96.8667 287° West 439 505 34,000  Level
05:05PM 45.0333 -97.0167 293° West 439 505 34,000  Level
05:06PM 45.0833 -97.1833 295° West 439 505 34,000  Level
05:07PM 45.1333 -97.3333 286° West 439 505 34,000  Level
05:08PM 45.1667 -97.5000 295° West 439 505 34,000  Level
05:09PM 45.2167 -97.6500 295° West 429 494 34,000  Level
05:10PM 45.2667 -97.8000 286° West 424 488 34,000  Level
05:11PM 45.3000 -97.9667 295° West 424 488 34,000  Level
05:12PM 45.3500 -98.1167 295° West 429 494 34,000  Level
05:13PM 45.4000 -98.2667 286° West 429 494 34,000  Level
05:14PM 45.4333 -98.4333 295° West 423 487 34,000  Level
05:15PM 45.4833 -98.5833 302° West 423 487 34,000  Level
05:16PM 45.5500 -98.7333 296° West 428 493 34,000  Level
05:17PM 45.6000 -98.8833 296° West 434 499 34,000  Level
05:18PM 45.6500 -99.0333 296° West 434 499 34,000  Level
05:19PM 45.7000 -99.1833 296° West 434 499 34,000  Level
05:20PM 45.7500 -99.3333 296° West 434 499 34,000  Level
05:21PM 45.8000 -99.4833 300° West 434 499 34,000  Level
05:22PM 45.8667 -99.6500 296° West 429 494 34,000  Level
05:23PM 45.9167 -99.8000 296° West 429 494 34,000  Level
05:24PM 45.9667 -99.9500 296° West 429 494 34,000  Level
05:25PM 46.0167 -100.1000 293° West 429 494 34,000  Level
05:26PM 46.0667 -100.2670 296° West 429 494 34,000  Level
05:27PM 46.1167 -100.4170 296° West 429 494 34,000  Level
05:28PM 46.1667 -100.5670 294° West 429 494 34,000  Level
05:29PM 46.2167 -100.7330 296° West 429 494 34,000  Level
05:30PM 46.2667 -100.8830 296° West 434 499 34,000  Level
05:31PM 46.3167 -101.0330 294° West 434 499 34,000  Level
05:32PM 46.3667 -101.2000 296° West 434 499 34,000  Level
05:33PM 46.4167 -101.3500 294° West 434 499 34,000  Level
05:34PM 46.4667 -101.5170 296° West 434 499 34,000  Level
05:35PM 46.5167 -101.6670 296° West 434 499 34,000  Level
05:36PM 46.5667 -101.8170 296° West 428 493 34,000  Level
05:37PM 46.6167 -101.9670 296° West 428 493 34,000  Level
05:38PM 46.6667 -102.1170 294° West 428 493 34,000  Level
05:39PM 46.7167 -102.2830 293° West 428 493 34,000  Level
05:40PM 46.7500 -102.4000 294° West 426 490 34,000  Level
05:41PM 46.8000 -102.5670 296° West 426 490 34,000  Level
05:42PM 46.8500 -102.7170 286° West 426 490 34,000  Level
05:43PM 46.8833 -102.8830 278° West 415 478 34,000  Level
05:44PM 46.9000 -103.0500 278° West 415 478 34,000  Level
05:45PM 46.9167 -103.2170 278° West 420 483 34,000  Level
05:46PM 46.9333 -103.3830 278° West 420 483 34,000  Level
05:47PM 46.9500 -103.5670 278° West 420 483 34,000  Level
05:48PM 46.9667 -103.7330 278° West 420 483 34,000  Level
05:49PM 46.9833 -103.9000 278° West 420 483 34,000  Level
05:50PM 47.0000 -104.0670 270° West 420 483 34,000  Level
05:51PM 47.0000 -104.2330 278° West 425 489 34,000  Level
05:52PM 47.0167 -104.4000 278° West 420 483 34,000  Level
05:53PM 47.0333 -104.5670 278° West 414 476 34,000  Level
05:54PM 47.0500 -104.7330 278° West 424 488 34,000  Level
05:55PM 47.0667 -104.9000 278° West 424 488 34,000  Level
05:56PM 47.0833 -105.0670 278° West 419 482 34,000  Level
05:57PM 47.1000 -105.2330 278° West 419 482 34,000  Level
05:58PM 47.1167 -105.4000 270° West 419 482 34,000  Level
05:59PM 47.1167 -105.5670 278° West 419 482 34,000  Level
06:00PM 47.1333 -105.7330 278° West 424 488 34,000  Level
06:01PM 47.1500 -105.9000 278° West 419 482 34,000  Level
06:02PM 47.1667 -106.0670 279° West 419 482 34,000  Level
06:03PM 47.1833 -106.2170 270° West 419 482 34,000  Level
06:04PM 47.1833 -106.3830 278° West 419 482 34,000  Level
06:05PM 47.2000 -106.5500 278° West 408 470 34,000  Level
06:06PM 47.2167 -106.7170 278° West 408 470 34,000  Level
06:07PM 47.2333 -106.8830 270° West 408 470 34,000  Level
06:08PM 47.2333 -107.0500 278° West 413 475 34,000  Level
06:09PM 47.2500 -107.2170 278° West 413 475 34,000  Level
06:10PM 47.2667 -107.3830 270° West 413 475 34,000  Level
06:11PM 47.2667 -107.5500 278° West 408 470 34,000  Level
06:12PM 47.2833 -107.7170 279° West 408 470 34,000  Level
06:13PM 47.3000 -107.8670 270° West 408 470 34,000  Level
06:14PM 47.3000 -108.0330 278° West 408 470 34,000  Level
06:15PM 47.3167 -108.2000 270° West 408 470 34,000  Level
06:16PM 47.3167 -108.3830 278° West 414 476 34,000 960 Level
06:17PM 47.3333 -108.5500 278° West 419 482 36,000 300 Climbing
06:18PM 47.3500 -108.7170 270° West 419 482 34,700 -300 Descending
06:19PM 47.3500 -108.8670 270° West 405 466 35,500 600 Climbing
06:20PM 47.3500 -109.0170 279° West 392 451 36,000 240 Climbing
06:21PM 47.3667 -109.1830 270° West 387 445 36,000  Level
06:22PM 47.3667 -109.3330 278° West 387 445 36,000  Level
06:23PM 47.3833 -109.5000 270° West 387 445 36,000  Level
06:24PM 47.3833 -109.6500 278° West 387 445 36,000  Level
06:25PM 47.4000 -109.8170 270° West 387 445 36,000  Level
06:26PM 47.4000 -109.9670 270° West 387 445 36,000  Level
06:27PM 47.4000 -110.1330 279° West 387 445 36,000  Level
06:28PM 47.4167 -110.2830 270° West 387 445 36,000  Level
06:29PM 47.4167 -110.4500 270° West 387 445 36,000  Level
06:30PM 47.4167 -110.6000 278° West 387 445 36,000  Level
06:31PM 47.4333 -110.7670 270° West 387 445 36,000  Level
06:32PM 47.4333 -110.9170 270° West 387 445 36,000  Level
06:33PM 47.4333 -111.0830 270° West 387 445 36,000  Level
06:34PM 47.4333 -111.2330 278° West 387 445 36,000  Level
06:35PM 47.4500 -111.4000 270° West 387 445 36,000  Level
06:36PM 47.4500 -111.5500 270° West 387 445 36,000  Level
06:37PM 47.4500 -111.7000 278° West 382 440 36,000  Level
06:38PM 47.4667 -111.8670 270° West 382 440 36,000  Level
06:39PM 47.4667 -112.0170 270° West 382 440 36,000  Level
06:40PM 47.4667 -112.1670 270° West 382 440 36,000  Level
06:41PM 47.4667 -112.3330 270° West 382 440 36,000  Level
06:42PM 47.4667 -112.4830 270° West 387 445 36,000  Level
06:43PM 47.4667 -112.6330 270° West 387 445 36,000  Level
06:44PM 47.4667 -112.8000 270° West 381 438 36,000  Level
06:45PM 47.4667 -112.9500 270° West 381 438 36,000  Level
06:46PM 47.4667 -113.1000 270° West 381 438 36,000  Level
06:47PM 47.4667 -113.2500 270° West 381 438 36,000  Level
06:48PM 47.4667 -113.4170 270° West 381 438 36,000  Level
06:49PM 47.4667 -113.5670 270° West 381 438 36,000  Level
06:50PM 47.4667 -113.7330 270° West 381 438 36,000  Level
06:51PM 47.4667 -113.8830 270° West 381 438 36,000  Level
06:52PM 47.4667 -114.1000 270° West 376 433 36,000  Level
06:53PM 47.4667 -114.2500 270° West 376 433 36,000  Level
06:54PM 47.4667 -114.4000 270° West 376 433 36,000  Level
06:55PM 47.4667 -114.5500 270° West 376 433 36,000  Level
06:56PM 47.4667 -114.7170 270° West 381 438 36,000  Level
06:57PM 47.4667 -114.8670 270° West 386 444 36,000  Level
06:58PM 47.4667 -115.0170 270° West 386 444 36,000  Level
06:59PM 47.4667 -115.1670 270° West 386 444 36,000  Level
07:00PM 47.4667 -115.3170 270° West 386 444 36,000  Level
07:01PM 47.4667 -115.4670 262° West 381 438 36,000  Level
07:02PM 47.4500 -115.6330 279° West 381 438 36,000  Level
07:03PM 47.4667 -115.7830 270° West 376 433 36,000  Level
07:04PM 47.4667 -115.9330 279° West 371 427 36,000  Level
07:05PM 47.4833 -116.0830 279° West 366 421 36,000  Level
07:06PM 47.5000 -116.2330 279° West 371 427 36,000  Level
07:07PM 47.5167 -116.3830 279° West 371 427 36,000  Level
07:08PM 47.5333 -116.5330 279° West 371 427 36,000  Level
07:09PM 47.5500 -116.6830 279° West 371 427 36,000  Level
07:10PM 47.5667 -116.8330 278° West 371 427 36,000  Level
07:11PM 47.5833 -117.0000 270° West 387 445 36,000  Level
07:12PM 47.5833 -117.1500 279° West 382 440 36,000  Level
07:13PM 47.6000 -117.3000 279° West 382 440 36,000  Level
07:14PM 47.6167 -117.4500 278° West 388 447 36,000  Level
07:15PM 47.6333 -117.6170 270° West 388 447 36,000  Level
07:16PM 47.6333 -117.7670 279° West 388 447 36,000  Level
07:17PM 47.6500 -117.9330 279° West 388 447 36,000  Level
07:18PM 47.6667 -118.0830 279° West 388 447 36,000  Level
07:19PM 47.6833 -118.2330 270° West 388 447 36,000  Level
07:20PM 47.6833 -118.4000 317° Northwest 388 447 36,000  Level
07:21PM 47.7667 -118.5170 334° Northwest 388 447 36,000  Level
07:22PM 47.8833 -118.6000 337° Northwest 414 476 36,000  Level
07:23PM 48.0167 -118.6830 334° Northwest 443 510 36,000  Level
07:24PM 48.1333 -118.7670 280° West 456 525 36,000  Level
07:25PM 48.1500 -118.9170 261° West 380 437 36,000  Level
07:26PM 48.1333 -119.0670 261° West 340 391 36,000  Level
07:27PM 48.1167 -119.2170 261° West 354 407 36,000  Level
07:28PM 48.1000 -119.3670 261° West 365 420 36,000 -780 Level
07:29PM 48.0833 -119.5170 252° West 365 420 34,500 -1,920 Descending
07:30PM 48.0500 -119.6670 261° West 371 427 32,200 -2,460 Descending
07:31PM 48.0333 -119.8170 261° West 371 427 29,600 -2,280 Descending
07:32PM 48.0167 -119.9670 261° West 371 427 27,700 -1,860 Descending
07:33PM 48.0000 -120.1170 261° West 371 427 25,900 -1,260 Descending
07:34PM 47.9833 -120.2670 261° West 371 427 25,200 -600 Descending
07:35PM 47.9667 -120.4170 249° West 371 427 24,700 -1,500 Descending
07:36PM 47.9333 -120.5500 261° West 366 421 22,200 -2,100 Descending
07:37PM 47.9167 -120.7000 259° West 361 415 20,500 -1,860 Descending
07:38PM 47.9000 -120.8330 260° West 348 400 18,500 -1,980 Descending
07:39PM 47.8833 -120.9670 260° West 342 394 16,600 -1,860 Descending
07:40PM 47.8667 -121.1000 281° West 342 394 14,800 -1,740 Descending
07:41PM 47.8833 -121.2330 270° West 331 381 13,200 -1,380 Descending
07:42PM 47.8833 -121.3500 282° West 320 368 12,100 -960 Descending
07:43PM 47.9000 -121.4670 270° West 304 350 11,300 11,940 Descending
07:44PM 47.9000 -121.5830 258° West 304 350 36,000 -420 Climbing
07:45PM 47.8833 -121.7000 233° Southwest 284 327 10,500 -13,080 Descending
07:46PM 47.8500 -121.7670 222° Southwest 239 275 9,900 -1,020 Descending
07:47PM 47.8000 -121.8330 195° South 234 269 8,500 -1,380 Descending
07:48PM 47.7167 -121.8670 198° South 239 275 7,200 -1,200 Descending
07:49PM 47.6500 -121.9000 190° South 251 289 6,100 -900 Descending
07:50PM 47.5833 -121.9170 207° Southwest 261 300 5,400 -600 Descending
07:51PM 47.5167 -121.9670 214° Southwest 259 298 5,000 -180 Descending
07:52PM 47.4667 -122.0170 225° Southwest 239 275 5,100 -480 Climbing
07:53PM 47.4333 -122.0670 225° Southwest 212 244 4,100 -960 Descending
07:54PM 47.4000 -122.1170 204° Southwest 199 229 3,200 -720 Descending
07:55PM 47.3500 -122.1500 318° Northwest 185 213 2,700 -600 Descending
07:56PM 47.4000 -122.2170 326° Northwest 132 152 2,100 -360 Descending
07:57PM 47.4333 -122.2500 347° North 121 139 2,000 -480 Descending
07:58PM 47.4833 -122.2670 342° North 126 145 1,200 -840 Descending
07:59PM 47.5167 -122.2830 325° Northwest 126 145 400 -600 Descending
08:00PM 47.5500 -122.3170 325° Northwest 126 145 100 -300 Descending